createdAt,value
2017-11-10T00:00:39.192Z,30.47
2017-11-10T00:03:08.093Z,24.50
2017-11-10T00:05:36.960Z,25.90
2017-11-10T00:08:05.821Z,29.87
2017-11-10T00:10:34.704Z,28.10
2017-11-10T00:13:04.365Z,25.53
2017-11-10T00:15:33.239Z,28.60
2017-11-10T00:18:02.109Z,26.13
2017-11-10T00:20:30.979Z,29.20
2017-11-10T00:22:59.831Z,26.23
2017-11-10T00:25:28.709Z,30.30
2017-11-10T00:27:57.582Z,27.30
2017-11-10T00:30:26.491Z,29.13
2017-11-10T00:32:55.392Z,23.30
2017-11-10T00:35:24.286Z,30.47
2017-11-10T00:37:53.168Z,28.87
2017-11-10T00:40:22.058Z,27.70
2017-11-10T00:42:51.055Z,27.10
2017-11-10T00:45:19.955Z,29.33
2017-11-10T00:47:48.835Z,27.73
2017-11-10T00:50:18.175Z,25.10
2017-11-10T00:52:47.043Z,31.00
2017-11-10T00:55:15.943Z,26.30
2017-11-10T00:57:45.679Z,24.47
2017-11-10T01:00:14.538Z,25.23
2017-11-10T01:02:43.429Z,25.13
2017-11-10T01:05:12.333Z,28.03
2017-11-10T01:07:41.232Z,24.63
2017-11-10T01:10:10.109Z,26.27
2017-11-10T01:12:39.033Z,24.03
2017-11-10T01:15:07.922Z,24.97
2017-11-10T01:17:36.838Z,27.00
2017-11-10T01:20:05.743Z,26.27
2017-11-10T01:22:34.659Z,25.90
2017-11-10T01:25:03.531Z,25.77
2017-11-10T01:27:32.429Z,25.43
2017-11-10T01:30:01.325Z,25.30
2017-11-10T01:32:30.232Z,27.00
2017-11-10T01:34:59.097Z,21.50
2017-11-10T01:37:28.028Z,26.20
2017-11-10T01:39:56.918Z,23.90
2017-11-10T01:42:25.782Z,25.20
2017-11-10T01:44:54.667Z,20.90
2017-11-10T01:47:23.574Z,22.97
2017-11-10T01:49:53.393Z,27.90
2017-11-10T01:52:22.297Z,24.90
2017-11-10T01:54:51.195Z,24.50
2017-11-10T01:57:20.080Z,24.40
2017-11-10T01:59:48.980Z,23.53
2017-11-10T02:02:17.866Z,23.77
2017-11-10T02:04:46.752Z,27.30
2017-11-10T02:07:15.663Z,25.10
2017-11-10T02:09:44.547Z,29.10
2017-11-10T02:12:16.246Z,26.27
2017-11-10T02:14:45.154Z,27.17
2017-11-10T02:17:14.076Z,28.30
2017-11-10T02:19:42.960Z,26.60
2017-11-10T02:22:11.870Z,23.60
2017-11-10T02:24:40.775Z,27.50
2017-11-10T02:27:09.940Z,28.30
2017-11-10T02:29:38.828Z,27.70
2017-11-10T02:32:07.695Z,24.93
2017-11-10T02:34:36.613Z,25.13
2017-11-10T02:37:05.489Z,24.60
2017-11-10T02:39:36.132Z,23.83
2017-11-10T02:42:05.021Z,25.50
2017-11-10T02:44:33.932Z,35.07
2017-11-10T02:47:02.827Z,26.03
2017-11-10T02:49:31.730Z,26.00
2017-11-10T02:52:00.619Z,21.50
2017-11-10T02:54:29.547Z,29.20
2017-11-10T02:56:58.440Z,24.97
2017-11-10T02:59:27.348Z,24.67
2017-11-10T03:01:56.223Z,22.23
2017-11-10T03:04:25.138Z,26.67
2017-11-10T03:06:54.004Z,24.87
2017-11-10T03:09:22.918Z,28.37
2017-11-10T03:11:51.783Z,26.20
2017-11-10T03:14:20.686Z,24.10
2017-11-10T03:16:49.684Z,27.30
2017-11-10T03:19:18.605Z,24.77
2017-11-10T03:21:47.482Z,21.93
2017-11-10T03:24:16.363Z,28.00
2017-11-10T03:26:45.279Z,25.23
2017-11-10T03:29:14.196Z,24.20
2017-11-10T03:31:43.068Z,26.03
2017-11-10T03:34:16.799Z,24.53
2017-11-10T03:36:45.670Z,23.97
2017-11-10T03:39:14.563Z,24.10
2017-11-10T03:41:43.440Z,26.40
2017-11-10T03:44:12.291Z,27.10
2017-11-10T03:46:41.190Z,22.47
2017-11-10T03:49:10.070Z,21.77
2017-11-10T03:51:39.047Z,25.50
2017-11-10T03:54:07.902Z,25.43
2017-11-10T03:56:36.769Z,23.30
2017-11-10T03:59:05.637Z,22.07
2017-11-10T04:01:34.578Z,28.20
2017-11-10T04:04:03.451Z,20.00
2017-11-10T04:06:32.334Z,20.80
2017-11-10T04:09:01.207Z,21.10
2017-11-10T04:11:30.083Z,19.27
2017-11-10T04:13:58.939Z,25.30
2017-11-10T04:16:27.834Z,23.17
2017-11-10T04:18:56.706Z,17.97
2017-11-10T04:21:25.563Z,22.57
2017-11-10T04:23:54.437Z,19.13
2017-11-10T04:26:23.306Z,19.40
2017-11-10T04:28:52.155Z,18.20
2017-11-10T04:31:21.035Z,21.50
2017-11-10T04:33:49.922Z,18.90
2017-11-10T04:36:18.795Z,18.60
2017-11-10T04:38:47.660Z,17.90
2017-11-10T04:41:16.543Z,18.17
2017-11-10T04:43:45.428Z,23.40
2017-11-10T04:46:14.276Z,23.30
2017-11-10T04:48:43.181Z,22.87
2017-11-10T04:51:12.045Z,23.40
2017-11-10T04:53:40.925Z,19.00
2017-11-10T04:56:09.778Z,16.63
2017-11-10T04:58:38.716Z,18.20
2017-11-10T05:01:07.571Z,18.80
2017-11-10T05:03:36.440Z,19.50
2017-11-10T05:06:05.287Z,18.87
2017-11-10T05:08:34.179Z,22.97
2017-11-10T05:11:03.052Z,18.60
2017-11-10T05:13:31.899Z,18.90
2017-11-10T05:16:00.795Z,22.23
2017-11-10T05:18:29.675Z,19.10
2017-11-10T05:20:58.622Z,17.80
2017-11-10T05:23:27.503Z,19.43
2017-11-10T05:25:56.393Z,17.70
2017-11-10T05:28:25.268Z,15.13
2017-11-10T05:30:54.169Z,19.50
2017-11-10T05:33:23.035Z,18.57
2017-11-10T05:35:51.920Z,19.70
2017-11-10T05:38:20.784Z,17.77
2017-11-10T05:40:49.659Z,17.57
2017-11-10T05:43:18.548Z,16.87
2017-11-10T05:45:47.415Z,17.83
2017-11-10T05:48:16.297Z,19.27
2017-11-10T05:50:45.170Z,24.70
2017-11-10T05:53:14.061Z,17.47
2017-11-10T05:55:42.937Z,17.27
2017-11-10T05:58:11.875Z,22.73
2017-11-10T06:00:40.744Z,19.20
2017-11-10T06:03:09.606Z,20.17
2017-11-10T06:05:38.501Z,15.63
2017-11-10T06:08:07.366Z,19.40
2017-11-10T06:10:36.239Z,25.73
2017-11-10T06:13:05.111Z,16.23
2017-11-10T06:15:33.987Z,18.87
2017-11-10T06:18:02.844Z,22.17
2017-11-10T06:20:31.804Z,21.57
2017-11-10T06:23:00.665Z,16.30
2017-11-10T06:25:29.546Z,20.60
2017-11-10T06:27:58.446Z,22.30
2017-11-10T06:30:27.332Z,19.80
2017-11-10T06:32:56.351Z,16.90
2017-11-10T06:35:25.238Z,16.83
2017-11-10T06:37:54.173Z,24.73
2017-11-10T06:40:23.034Z,19.37
2017-11-10T06:42:51.960Z,21.33
2017-11-10T06:45:20.830Z,22.20
2017-11-10T06:47:49.738Z,24.93
2017-11-10T06:50:18.608Z,20.77
2017-11-10T06:52:47.549Z,23.83
2017-11-10T06:55:16.429Z,24.73
2017-11-10T06:57:45.292Z,49.17
2017-11-10T07:00:14.160Z,60.70
2017-11-10T07:02:43.104Z,37.33
2017-11-10T07:05:11.988Z,32.93
2017-11-10T07:07:40.897Z,68.27
2017-11-10T07:10:09.792Z,42.67
2017-11-10T07:12:38.656Z,31.40
2017-11-10T07:15:07.540Z,31.57
2017-11-10T07:17:36.429Z,34.80
2017-11-10T07:20:05.359Z,25.33
2017-11-10T07:22:34.211Z,27.43
2017-11-10T07:25:03.118Z,23.27
2017-11-10T07:27:31.979Z,24.20
2017-11-10T07:30:00.876Z,21.87
2017-11-10T07:32:29.783Z,24.50
2017-11-10T07:34:58.656Z,28.33
2017-11-10T07:37:27.533Z,23.97
2017-11-10T07:39:56.401Z,21.37
2017-11-10T07:42:25.281Z,22.20
2017-11-10T07:44:54.184Z,22.40
2017-11-10T07:47:23.067Z,24.30
2017-11-10T07:49:51.922Z,23.33
2017-11-10T07:52:20.831Z,26.20
2017-11-10T07:54:49.686Z,21.47
2017-11-10T07:57:18.567Z,22.53
2017-11-10T07:59:47.433Z,18.80
2017-11-10T08:02:16.325Z,24.50
2017-11-10T08:04:45.191Z,19.37
2017-11-10T08:07:14.063Z,28.90
2017-11-10T08:09:42.954Z,20.43
2017-11-10T08:12:11.837Z,20.00
2017-11-10T08:14:40.707Z,22.77
2017-11-10T08:17:09.588Z,28.67
2017-11-10T08:19:38.452Z,23.87
2017-11-10T08:22:07.350Z,24.73
2017-11-10T08:24:36.207Z,24.10
2017-11-10T08:27:05.088Z,23.80
2017-11-10T08:29:33.983Z,24.33
2017-11-10T08:32:02.852Z,22.70
2017-11-10T08:34:31.743Z,24.30
2017-11-10T08:37:00.625Z,24.40
2017-11-10T08:39:29.511Z,21.20
2017-11-10T08:41:58.388Z,21.20
2017-11-10T08:44:27.308Z,24.37
2017-11-10T08:46:56.165Z,28.10
2017-11-10T08:49:25.035Z,22.97
2017-11-10T08:51:53.902Z,25.60
2017-11-10T08:54:22.779Z,26.30
2017-11-10T08:56:51.691Z,25.00
2017-11-10T08:59:20.569Z,26.77
2017-11-10T09:01:49.445Z,24.77
2017-11-10T09:04:18.307Z,26.10
2017-11-10T09:06:47.217Z,26.30
2017-11-10T09:09:16.144Z,23.23
2017-11-10T09:11:45.144Z,28.63
2017-11-10T09:14:14.117Z,28.53
2017-11-10T09:16:42.993Z,33.93
2017-11-10T09:19:11.881Z,31.37
2017-11-10T09:21:40.748Z,28.23
2017-11-10T09:24:09.640Z,29.87
2017-11-10T09:26:38.554Z,30.10
2017-11-10T09:29:23.262Z,32.27
2017-11-10T09:32:02.073Z,25.60
2017-11-10T09:34:36.644Z,28.83
2017-11-10T09:37:24.230Z,29.60
2017-11-10T09:39:56.641Z,31.43
2017-11-10T09:42:26.105Z,35.00
2017-11-10T09:45:13.787Z,35.10
2017-11-10T09:47:58.352Z,30.13
2017-11-10T09:50:33.113Z,30.63
2017-11-10T09:53:02.551Z,29.90
2017-11-10T09:55:42.014Z,28.30
2017-11-10T09:58:18.526Z,27.50
2017-11-10T10:00:47.532Z,46.30
2017-11-10T10:03:27.226Z,28.03
2017-11-10T10:06:16.958Z,31.13
2017-11-10T10:09:05.710Z,30.50
2017-11-10T10:11:40.231Z,30.47
2017-11-10T10:14:25.823Z,32.43
2017-11-10T10:17:00.707Z,39.23
2017-11-10T10:19:46.399Z,32.17
2017-11-10T10:22:16.862Z,32.30
2017-11-10T10:24:45.772Z,28.43
2017-11-10T10:27:14.764Z,31.27
2017-11-10T10:29:43.628Z,29.63
2017-11-10T10:32:12.508Z,31.97
2017-11-10T10:34:41.372Z,29.80
2017-11-10T10:37:10.275Z,36.70
2017-11-10T10:39:39.145Z,70.57
2017-11-10T10:42:08.013Z,30.03
2017-11-10T10:44:36.894Z,30.17
2017-11-10T10:47:05.816Z,31.50
2017-11-10T10:49:34.683Z,31.43
2017-11-10T10:52:03.570Z,32.23
2017-11-10T10:54:32.455Z,32.90
2017-11-10T10:57:01.324Z,26.80
2017-11-10T10:59:30.192Z,31.53
2017-11-10T11:01:59.069Z,29.60
2017-11-10T11:04:27.941Z,28.40
2017-11-10T11:06:56.808Z,27.60
2017-11-10T11:09:25.688Z,26.57
2017-11-10T11:11:54.567Z,30.70
2017-11-10T11:14:23.451Z,29.07
2017-11-10T11:16:52.324Z,31.83
2017-11-10T11:19:21.201Z,31.63
2017-11-10T11:21:50.062Z,31.30
2017-11-10T11:24:18.931Z,28.53
2017-11-10T11:26:47.804Z,25.17
2017-11-10T11:29:16.711Z,27.00
2017-11-10T11:31:45.586Z,24.93
2017-11-10T11:34:14.455Z,24.37
2017-11-10T11:36:43.343Z,27.47
2017-11-10T11:39:12.208Z,24.83
2017-11-10T11:41:41.100Z,26.93
2017-11-10T11:44:09.979Z,28.10
2017-11-10T11:46:38.852Z,28.47
2017-11-10T11:49:07.700Z,30.83
2017-11-10T11:51:36.648Z,26.97
2017-11-10T11:54:05.517Z,30.40
2017-11-10T11:56:34.403Z,27.10
2017-11-10T11:59:03.276Z,30.73
2017-11-10T12:01:32.311Z,40.27
2017-11-10T12:04:01.191Z,26.70
2017-11-10T12:06:30.082Z,28.10
2017-11-10T12:08:58.948Z,32.87
2017-11-10T12:11:27.828Z,29.37
2017-11-10T12:13:56.700Z,27.67
2017-11-10T12:16:25.604Z,29.00
2017-11-10T12:18:54.492Z,31.50
2017-11-10T12:21:23.376Z,28.80
2017-11-10T12:23:52.227Z,27.93
2017-11-10T12:26:21.109Z,28.70
2017-11-10T12:28:49.974Z,24.00
2017-11-10T12:31:18.846Z,31.70
2017-11-10T12:33:47.695Z,30.80
2017-11-10T12:36:16.570Z,30.53
2017-11-10T12:38:45.421Z,31.13
2017-11-10T12:41:14.307Z,29.77
2017-11-10T12:43:43.206Z,30.90
2017-11-10T12:46:12.076Z,30.77
2017-11-10T12:48:40.920Z,31.53
2017-11-10T12:51:09.813Z,25.60
2017-11-10T12:53:38.749Z,28.77
2017-11-10T12:56:07.722Z,26.17
2017-11-10T12:58:36.596Z,28.13
2017-11-10T13:01:05.520Z,28.70
2017-11-10T13:03:34.395Z,24.50
2017-11-10T13:06:03.295Z,27.20
2017-11-10T13:08:32.175Z,23.93
2017-11-10T13:11:01.053Z,25.30
2017-11-10T13:13:29.905Z,29.50
2017-11-10T13:15:58.795Z,24.73
2017-11-10T13:18:27.771Z,25.27
2017-11-10T13:20:56.651Z,28.20
2017-11-10T13:23:25.509Z,24.27
2017-11-10T13:25:54.396Z,24.13
2017-11-10T13:28:23.271Z,30.93
2017-11-10T13:30:52.169Z,25.63
2017-11-10T13:33:21.011Z,22.47
2017-11-10T13:35:49.921Z,26.63
2017-11-10T13:38:18.803Z,28.43
2017-11-10T13:40:47.686Z,27.20
2017-11-10T13:43:16.588Z,24.20
2017-11-10T13:45:45.533Z,27.87
2017-11-10T13:48:14.407Z,24.13
2017-11-10T13:50:43.310Z,26.60
2017-11-10T13:53:12.220Z,20.70
2017-11-10T13:55:41.085Z,26.20
2017-11-10T13:58:10.001Z,32.03
2017-11-10T14:00:38.868Z,50.30
2017-11-10T14:03:07.753Z,25.50
2017-11-10T14:05:36.616Z,23.23
2017-11-10T14:08:05.496Z,24.60
2017-11-10T14:10:34.348Z,25.63
2017-11-10T14:13:03.241Z,22.73
2017-11-10T14:15:32.148Z,28.27
2017-11-10T14:18:01.016Z,23.33
2017-11-10T14:20:29.964Z,22.13
2017-11-10T14:22:58.922Z,22.03
2017-11-10T14:25:27.800Z,25.70
2017-11-10T14:27:56.765Z,36.17
2017-11-10T14:30:25.666Z,22.40
2017-11-10T14:32:54.535Z,22.50
2017-11-10T14:35:23.445Z,25.70
2017-11-10T14:37:52.351Z,25.30
2017-11-10T14:40:21.243Z,23.50
2017-11-10T14:42:50.109Z,24.10
2017-11-10T14:45:19.001Z,24.00
2017-11-10T14:47:47.864Z,21.03
2017-11-10T14:50:16.757Z,20.53
2017-11-10T14:52:45.603Z,27.07
2017-11-10T14:55:14.510Z,22.53
2017-11-10T14:57:43.363Z,22.87
2017-11-10T15:00:12.374Z,19.50
2017-11-10T15:02:41.344Z,20.30
2017-11-10T15:05:10.210Z,23.53
2017-11-10T15:07:39.097Z,25.97
2017-11-10T15:10:07.959Z,24.10
2017-11-10T15:12:36.850Z,26.93
2017-11-10T15:15:05.714Z,20.40
2017-11-10T15:17:34.604Z,26.13
2017-11-10T15:20:03.476Z,22.63
2017-11-10T15:22:32.382Z,21.80
2017-11-10T15:25:01.277Z,22.63
2017-11-10T15:27:30.291Z,27.77
2017-11-10T15:29:59.156Z,24.20
2017-11-10T15:32:28.052Z,23.40
2017-11-10T15:34:56.937Z,22.87
2017-11-10T15:37:25.888Z,25.30
2017-11-10T15:39:54.766Z,20.63
2017-11-10T15:42:23.653Z,23.87
2017-11-10T15:44:52.504Z,23.63
2017-11-10T15:47:21.409Z,31.30
2017-11-10T15:49:50.284Z,25.97
2017-11-10T15:52:19.176Z,23.20
2017-11-10T15:54:48.033Z,22.77
2017-11-10T15:57:16.920Z,24.90
2017-11-10T15:59:45.800Z,31.90
2017-11-10T16:02:14.718Z,24.40
2017-11-10T16:04:43.619Z,26.57
2017-11-10T16:07:12.501Z,29.30
2017-11-10T16:09:41.378Z,24.53
2017-11-10T16:12:10.261Z,24.70
2017-11-10T16:14:39.151Z,28.53
2017-11-10T16:17:08.007Z,26.10
2017-11-10T16:19:36.966Z,22.30
2017-11-10T16:22:05.822Z,23.90
2017-11-10T16:24:34.987Z,23.40
2017-11-10T16:27:04.044Z,26.50
2017-11-10T16:29:32.982Z,21.23
2017-11-10T16:32:01.868Z,26.83
2017-11-10T16:34:30.773Z,21.07
2017-11-10T16:36:59.652Z,21.37
2017-11-10T16:39:28.541Z,20.33
2017-11-10T16:41:57.403Z,19.00
2017-11-10T16:44:26.321Z,23.40
2017-11-10T16:46:55.197Z,22.80
2017-11-10T16:49:24.077Z,19.17
2017-11-10T16:51:52.927Z,20.50
2017-11-10T16:54:21.819Z,16.67
2017-11-10T16:56:50.688Z,16.00
2017-11-10T16:59:19.561Z,18.97
2017-11-10T17:01:48.425Z,14.83
2017-11-10T17:04:17.335Z,17.10
2017-11-10T17:06:46.220Z,15.10
2017-11-10T17:09:15.132Z,20.03
2017-11-10T17:11:44.002Z,17.73
2017-11-10T17:14:12.856Z,16.07
2017-11-10T17:16:41.720Z,14.97
2017-11-10T17:19:10.581Z,14.67
2017-11-10T17:21:39.465Z,13.43
2017-11-10T17:24:08.320Z,12.97
2017-11-10T17:26:37.216Z,14.07
2017-11-10T17:29:06.103Z,20.70
2017-11-10T17:31:35.041Z,11.43
2017-11-10T17:34:03.908Z,13.63
2017-11-10T17:36:32.820Z,12.20
2017-11-10T17:39:01.721Z,15.60
2017-11-10T17:41:30.611Z,10.30
2017-11-10T17:43:59.505Z,11.77
2017-11-10T17:46:28.403Z,12.10
2017-11-10T17:48:57.276Z,12.13
2017-11-10T17:51:26.149Z,10.10
2017-11-10T17:53:55.041Z,9.70
2017-11-10T17:56:23.890Z,11.57
2017-11-10T17:58:52.839Z,10.83
2017-11-10T18:01:21.695Z,7.63
2017-11-10T18:03:50.581Z,15.00
2017-11-10T18:06:19.443Z,7.80
2017-11-10T18:08:48.312Z,7.87
2017-11-10T18:11:17.178Z,9.07
2017-11-10T18:13:46.079Z,13.73
2017-11-10T18:16:14.934Z,8.20
2017-11-10T18:18:43.799Z,5.90
2017-11-10T18:21:12.784Z,6.73
2017-11-10T18:23:41.647Z,6.73
2017-11-10T18:26:10.546Z,9.13
2017-11-10T18:28:39.411Z,6.33
2017-11-10T18:31:08.296Z,6.73
2017-11-10T18:33:37.183Z,8.73
2017-11-10T18:36:06.066Z,6.07
2017-11-10T18:38:34.965Z,6.13
2017-11-10T18:41:03.840Z,5.67
2017-11-10T18:43:32.781Z,8.53
2017-11-10T18:46:01.640Z,5.83
2017-11-10T18:48:34.360Z,7.43
2017-11-10T18:51:03.224Z,6.40
2017-11-10T18:53:38.018Z,6.07
2017-11-10T18:56:06.916Z,6.80
2017-11-10T18:58:35.799Z,6.57
2017-11-10T19:01:04.687Z,4.67
2017-11-10T19:03:33.559Z,6.33
2017-11-10T19:06:02.431Z,7.03
2017-11-10T19:08:31.291Z,6.20
2017-11-10T19:11:00.191Z,4.43
2017-11-10T19:13:29.067Z,4.83
2017-11-10T19:15:57.951Z,4.73
2017-11-10T19:18:26.820Z,5.67
2017-11-10T19:20:55.694Z,6.10
2017-11-10T19:23:24.556Z,4.00
2017-11-10T19:25:53.427Z,6.23
2017-11-10T19:28:22.288Z,6.10
2017-11-10T19:30:51.158Z,3.50
2017-11-10T19:33:20.037Z,4.20
2017-11-10T19:35:48.944Z,5.13
2017-11-10T19:38:17.858Z,3.23
2017-11-10T19:40:46.764Z,3.13
2017-11-10T19:43:16.449Z,3.30
2017-11-10T19:45:45.324Z,3.00
2017-11-10T19:48:14.201Z,3.87
2017-11-10T19:50:43.044Z,7.80
2017-11-10T19:53:12.263Z,4.33
2017-11-10T19:55:41.142Z,3.20
2017-11-10T19:58:10.319Z,4.93
2017-11-10T20:00:39.172Z,4.57
2017-11-10T20:03:08.067Z,4.23
2017-11-10T20:05:36.932Z,4.93
2017-11-10T20:08:05.795Z,3.57
2017-11-10T20:10:34.684Z,4.43
2017-11-10T20:13:03.536Z,2.50
2017-11-10T20:15:32.521Z,4.47
2017-11-10T20:18:01.398Z,5.30
2017-11-10T20:20:30.282Z,3.53
2017-11-10T20:22:59.220Z,3.83
2017-11-10T20:25:28.103Z,3.70
2017-11-10T20:27:56.997Z,4.87
2017-11-10T20:30:26.395Z,5.03
2017-11-10T20:32:55.287Z,3.50
2017-11-10T20:35:24.168Z,6.33
2017-11-10T20:37:53.040Z,3.67
2017-11-10T20:40:22.367Z,4.03
2017-11-10T20:42:51.308Z,5.97
2017-11-10T20:45:20.208Z,5.33
2017-11-10T20:47:49.137Z,3.37
2017-11-10T20:50:18.089Z,9.93
2017-11-10T20:52:46.961Z,3.20
2017-11-10T20:55:15.841Z,4.30
2017-11-10T20:57:44.695Z,4.50
2017-11-10T21:00:13.572Z,3.70
2017-11-10T21:02:42.428Z,3.20
2017-11-10T21:05:11.284Z,4.57
2017-11-10T21:07:40.162Z,4.10
2017-11-10T21:10:09.009Z,3.20
2017-11-10T21:12:37.882Z,4.00
2017-11-10T21:15:06.738Z,4.40
2017-11-10T21:17:35.624Z,5.37
2017-11-10T21:20:04.477Z,4.60
2017-11-10T21:22:33.355Z,7.23
2017-11-10T21:25:02.190Z,4.33
2017-11-10T21:27:31.060Z,4.20
2017-11-10T21:29:59.907Z,4.33
2017-11-10T21:32:28.783Z,3.50
2017-11-10T21:34:57.659Z,3.83
2017-11-10T21:37:26.517Z,5.50
2017-11-10T21:39:55.374Z,3.90
2017-11-10T21:42:24.247Z,3.63
2017-11-10T21:44:53.125Z,3.90
2017-11-10T21:47:22.048Z,4.80
2017-11-10T21:49:50.943Z,4.53
2017-11-10T21:52:19.794Z,2.93
2017-11-10T21:54:48.700Z,4.60
2017-11-10T21:57:17.630Z,4.43
2017-11-10T21:59:46.497Z,3.93
2017-11-10T22:02:15.359Z,3.90
2017-11-10T22:04:44.225Z,3.83
2017-11-10T22:07:13.091Z,3.50
2017-11-10T22:09:41.979Z,4.30
2017-11-10T22:12:10.841Z,3.77
2017-11-10T22:14:39.699Z,3.43
2017-11-10T22:17:08.572Z,3.00
2017-11-10T22:19:37.462Z,4.10
2017-11-10T22:22:06.314Z,3.73
2017-11-10T22:24:35.175Z,3.40
2017-11-10T22:27:04.075Z,3.13
2017-11-10T22:29:32.946Z,3.47
2017-11-10T22:32:01.805Z,4.07
2017-11-10T22:34:30.709Z,2.53
2017-11-10T22:36:59.570Z,5.20
2017-11-10T22:39:28.451Z,2.90
2017-11-10T22:41:57.294Z,6.50
2017-11-10T22:44:26.181Z,3.53
2017-11-10T22:46:55.053Z,4.80
2017-11-10T22:49:23.924Z,3.17
2017-11-10T22:51:52.797Z,10.53
2017-11-10T22:54:21.674Z,3.50
2017-11-10T22:56:50.538Z,3.33
2017-11-10T22:59:19.427Z,3.23
2017-11-10T23:01:48.288Z,2.70
2017-11-10T23:04:17.180Z,3.57
2017-11-10T23:06:46.032Z,4.60
2017-11-10T23:09:14.902Z,3.40
2017-11-10T23:11:43.817Z,4.40
2017-11-10T23:14:12.682Z,4.30
2017-11-10T23:16:41.531Z,4.90
2017-11-10T23:19:10.408Z,5.17
2017-11-10T23:21:39.251Z,3.90
2017-11-10T23:24:08.119Z,4.33
2017-11-10T23:26:37.006Z,4.27
2017-11-10T23:29:05.938Z,4.90
2017-11-10T23:31:34.788Z,6.17
2017-11-10T23:34:03.636Z,5.97
2017-11-10T23:36:32.501Z,4.27
2017-11-10T23:39:01.349Z,6.10
2017-11-10T23:41:30.228Z,6.67
2017-11-10T23:43:59.084Z,7.07
2017-11-10T23:46:27.947Z,8.33
2017-11-10T23:48:56.811Z,6.73
2017-11-10T23:51:25.711Z,9.27
2017-11-10T23:53:54.563Z,7.40
2017-11-10T23:56:23.467Z,7.93
2017-11-10T23:58:52.367Z,8.73
